Terminal Aerodrome Forecast
Issued by NWS Bismarck, ND

Home | Current Version | Previous Version | Graphics & Text | Print | Product List | Glossary On
Versions: 1 2 3 4 5 6 7 8 9 10 11 12
647
FTUS43 KBIS 260520
TAFBIS
TAF
KBIS 260520Z 2606/2706 30007KT P6SM SKC
     FM261500 32014G20KT P6SM SKC
     FM270100 31006KT P6SM SKC=

USA.gov is the U.S. government's official web portal to all federal, state and local government web resources and services.